createdAt,value
2023-05-14T00:01:00.585Z,11.9
2023-05-14T00:02:09.747Z,11.8
2023-05-14T00:03:18.918Z,11.8
2023-05-14T00:04:28.089Z,11.7
2023-05-14T00:05:37.266Z,11.6
2023-05-14T00:06:45.448Z,11.6
2023-05-14T00:07:53.651Z,11.6
2023-05-14T00:09:01.863Z,11.6
2023-05-14T00:10:11.013Z,11.5
2023-05-14T00:11:20.187Z,11.4
2023-05-14T00:12:29.362Z,11.5
2023-05-14T00:13:38.545Z,11.4
2023-05-14T00:14:47.712Z,11.4
2023-05-14T00:15:56.875Z,11.5
2023-05-14T00:17:06.048Z,11.4
2023-05-14T00:18:15.224Z,11.4
2023-05-14T00:20:33.565Z,11.4
2023-05-14T00:21:42.737Z,11.5
2023-05-14T00:22:51.911Z,11.4
2023-05-14T00:24:00.098Z,11.4
2023-05-14T00:27:27.610Z,11.5
2023-05-14T00:28:35.822Z,11.4
2023-05-14T00:29:44.006Z,11.4
2023-05-14T00:30:53.229Z,11.4
2023-05-14T00:32:02.351Z,11.4
2023-05-14T00:33:11.517Z,11.3
2023-05-14T00:34:20.690Z,11.3
2023-05-14T00:35:29.886Z,11.2
2023-05-14T00:36:39.075Z,11.2
2023-05-14T00:37:48.212Z,11.2
2023-05-14T00:38:57.388Z,11.2
2023-05-14T00:40:05.578Z,11.2
2023-05-14T00:41:13.758Z,11.2
2023-05-14T00:42:22.929Z,11.2
2023-05-14T00:43:32.100Z,11.2
2023-05-14T00:44:41.274Z,11.1
2023-05-14T00:45:50.461Z,11.1
2023-05-14T00:46:59.634Z,11.1
2023-05-14T00:48:08.810Z,11.1
2023-05-14T00:49:17.974Z,11.1
2023-05-14T00:50:27.148Z,11.1
2023-05-14T00:51:36.341Z,11.2
2023-05-14T00:52:45.499Z,11.2
2023-05-14T00:53:54.677Z,11.2
2023-05-14T00:55:03.850Z,11.2
2023-05-14T00:56:12.041Z,11.2
2023-05-14T00:58:30.383Z,11.2
2023-05-14T00:59:39.551Z,11.1
2023-05-14T01:00:48.729Z,11
2023-05-14T01:01:57.891Z,11
2023-05-14T01:03:07.067Z,11
2023-05-14T01:04:16.245Z,10.9
2023-05-14T01:05:25.412Z,10.9
2023-05-14T01:06:34.589Z,10.9
2023-05-14T01:07:43.758Z,11
2023-05-14T01:08:52.929Z,11
2023-05-14T01:10:02.097Z,11
2023-05-14T01:12:19.456Z,11
2023-05-14T01:13:28.633Z,11
2023-05-14T01:14:37.833Z,11
2023-05-14T01:15:46.988Z,11
2023-05-14T01:16:56.164Z,11
2023-05-14T01:18:05.335Z,10.9
2023-05-14T01:19:14.502Z,10.9
2023-05-14T01:20:23.664Z,10.9
2023-05-14T01:21:32.838Z,11
2023-05-14T01:22:42.024Z,11
2023-05-14T01:23:51.190Z,11.1
2023-05-14T01:25:00.366Z,11.1
2023-05-14T01:26:08.555Z,11
2023-05-14T01:27:16.749Z,11
2023-05-14T01:28:24.939Z,11
2023-05-14T01:29:33.118Z,10.9
2023-05-14T01:30:42.325Z,10.9
2023-05-14T01:33:00.645Z,10.9
2023-05-14T01:34:09.818Z,10.9
2023-05-14T01:35:18.988Z,10.9
2023-05-14T01:36:28.172Z,10.9
2023-05-14T01:37:37.339Z,10.9
2023-05-14T01:39:55.681Z,11
2023-05-14T01:41:04.857Z,10.9
2023-05-14T01:42:13.055Z,10.9
2023-05-14T01:43:21.239Z,10.9
2023-05-14T01:44:30.420Z,10.9
2023-05-14T01:45:39.588Z,11
2023-05-14T01:46:48.751Z,11
2023-05-14T01:47:57.938Z,11
2023-05-14T01:49:07.107Z,11
2023-05-14T01:50:16.289Z,11
2023-05-14T01:51:25.468Z,11
2023-05-14T01:52:34.621Z,11
2023-05-14T01:53:42.827Z,11
2023-05-14T01:54:51.000Z,10.9
2023-05-14T01:56:00.193Z,10.9
2023-05-14T01:57:09.344Z,10.9
2023-05-14T01:58:18.537Z,10.9
2023-05-14T01:59:27.828Z,10.9
2023-05-14T02:00:36.857Z,10.9
2023-05-14T02:01:46.045Z,10.8
2023-05-14T02:04:04.391Z,10.8
2023-05-14T02:05:13.556Z,10.8
2023-05-14T02:06:22.723Z,10.7
2023-05-14T02:07:31.932Z,10.7
2023-05-14T02:08:41.080Z,10.7
2023-05-14T02:09:49.276Z,10.7
2023-05-14T02:10:58.539Z,10.7
2023-05-14T02:12:07.613Z,10.7
2023-05-14T02:13:16.786Z,10.6
2023-05-14T02:14:25.995Z,10.6
2023-05-14T02:15:35.128Z,10.6
2023-05-14T02:16:44.303Z,10.6
2023-05-14T02:17:52.501Z,10.5
2023-05-14T02:19:00.685Z,10.5
2023-05-14T02:20:09.864Z,10.5
2023-05-14T02:21:19.032Z,10.5
2023-05-14T02:22:28.216Z,10.6
2023-05-14T02:23:37.387Z,10.6
2023-05-14T02:24:46.548Z,10.6
2023-05-14T02:25:55.753Z,10.6
2023-05-14T02:27:04.899Z,10.6
2023-05-14T02:28:14.064Z,10.6
2023-05-14T02:29:23.246Z,10.6
2023-05-14T02:30:32.417Z,10.5
2023-05-14T02:31:41.594Z,10.5
2023-05-14T02:32:50.771Z,10.3
2023-05-14T02:33:58.951Z,10.3
2023-05-14T02:35:08.114Z,10.3
2023-05-14T02:36:17.289Z,10.3
2023-05-14T02:37:26.474Z,10.2
2023-05-14T02:38:35.638Z,10.2
2023-05-14T02:39:44.819Z,10.2
2023-05-14T02:40:53.986Z,10.1
2023-05-14T02:42:03.164Z,10.1
2023-05-14T02:43:12.326Z,10
2023-05-14T02:44:21.512Z,10
2023-05-14T02:45:30.669Z,10
2023-05-14T02:46:39.846Z,10
2023-05-14T02:47:49.010Z,10
2023-05-14T02:48:57.214Z,10
2023-05-14T02:51:15.596Z,10
2023-05-14T02:52:24.727Z,9.9
2023-05-14T02:53:33.898Z,10
2023-05-14T02:54:43.111Z,9.9
2023-05-14T02:55:52.259Z,9.9
2023-05-14T02:58:10.590Z,9.9
2023-05-14T02:59:19.778Z,9.9
2023-05-14T03:01:38.110Z,9.8
2023-05-14T03:02:47.283Z,9.9
2023-05-14T03:03:55.475Z,9.9
2023-05-14T03:05:03.658Z,9.8
2023-05-14T03:06:12.842Z,9.7
2023-05-14T03:07:22.027Z,9.7
2023-05-14T03:08:31.175Z,9.7
2023-05-14T03:09:40.359Z,9.7
2023-05-14T03:11:58.710Z,9.5
2023-05-14T03:13:07.872Z,9.5
2023-05-14T03:14:17.050Z,9.5
2023-05-14T03:15:26.209Z,9.4
2023-05-14T03:16:35.393Z,9.4
2023-05-14T03:17:44.566Z,9.4
2023-05-14T03:18:53.754Z,9.5
2023-05-14T03:20:01.933Z,9.5
2023-05-14T03:21:11.102Z,9.4
2023-05-14T03:22:20.270Z,9.4
2023-05-14T03:23:29.449Z,9.4
2023-05-14T03:24:38.621Z,9.4
2023-05-14T03:25:47.788Z,9.5
2023-05-14T03:26:56.960Z,9.4
2023-05-14T03:28:05.159Z,9.4
2023-05-14T03:29:13.348Z,9.4
2023-05-14T03:30:21.545Z,9.3
2023-05-14T03:31:30.720Z,9.4
2023-05-14T03:32:39.901Z,9.4
2023-05-14T03:33:49.060Z,9.4
2023-05-14T03:34:58.236Z,9.4
2023-05-14T03:37:16.586Z,9.5
2023-05-14T03:38:25.750Z,9.5
2023-05-14T03:40:44.103Z,9.5
2023-05-14T03:41:53.277Z,9.5
2023-05-14T03:43:01.460Z,9.4
2023-05-14T03:44:09.652Z,9.4
2023-05-14T03:46:28.012Z,9.4
2023-05-14T03:47:37.175Z,9.4
2023-05-14T03:48:45.368Z,9.5
2023-05-14T03:49:54.540Z,9.5
2023-05-14T03:51:03.709Z,9.5
2023-05-14T03:52:12.873Z,9.5
2023-05-14T03:53:22.052Z,9.4
2023-05-14T03:54:31.231Z,9.5
2023-05-14T03:55:40.406Z,9.5
2023-05-14T03:56:49.570Z,9.5
2023-05-14T03:57:58.755Z,9.4
2023-05-14T03:59:07.927Z,9.4
2023-05-14T04:00:17.091Z,9.4
2023-05-14T04:01:26.265Z,9.5
2023-05-14T04:02:35.448Z,9.5
2023-05-14T04:03:43.623Z,9.5
2023-05-14T04:04:52.802Z,9.6
2023-05-14T04:06:01.977Z,9.6
2023-05-14T04:07:10.163Z,9.6
2023-05-14T04:08:18.348Z,9.6
2023-05-14T04:09:27.538Z,9.5
2023-05-14T04:10:36.723Z,9.6
2023-05-14T04:11:45.865Z,9.7
2023-05-14T04:12:55.044Z,9.7
2023-05-14T04:14:04.217Z,9.8
2023-05-14T04:15:13.406Z,9.9
2023-05-14T04:16:22.565Z,9.8
2023-05-14T04:17:31.745Z,9.7
2023-05-14T04:18:40.917Z,9.8
2023-05-14T04:19:50.087Z,10
2023-05-14T04:20:59.255Z,10
2023-05-14T04:22:08.442Z,10.1
2023-05-14T04:23:16.610Z,10.3
2023-05-14T04:24:25.796Z,10.4
2023-05-14T04:25:34.957Z,10.5
2023-05-14T04:26:44.141Z,10.5
2023-05-14T04:27:53.310Z,10.5
2023-05-14T04:29:02.487Z,10.6
2023-05-14T04:30:10.687Z,10.4
2023-05-14T04:31:18.862Z,10.3
2023-05-14T04:32:28.032Z,10.4
2023-05-14T04:33:37.199Z,10.4
2023-05-14T04:34:46.384Z,10.4
2023-05-14T04:35:55.554Z,10.4
2023-05-14T04:37:04.726Z,10.5
2023-05-14T04:38:13.904Z,10.6
2023-05-14T04:39:23.076Z,10.6
2023-05-14T04:40:32.245Z,10.6
2023-05-14T04:41:41.418Z,10.7
2023-05-14T04:42:50.594Z,10.8
2023-05-14T04:45:08.936Z,11.1
2023-05-14T04:47:26.294Z,11.1
2023-05-14T04:48:34.484Z,11.1
2023-05-14T04:49:42.692Z,11.2
2023-05-14T04:50:51.849Z,11.3
2023-05-14T04:52:01.012Z,11.3
2023-05-14T04:53:10.184Z,11.3
2023-05-14T04:54:19.364Z,11.5
2023-05-14T04:55:28.557Z,11.4
2023-05-14T04:56:37.708Z,11.5
2023-05-14T04:57:46.883Z,11.7
2023-05-14T04:58:56.070Z,11.6
2023-05-14T05:00:04.264Z,11.6
2023-05-14T05:01:12.445Z,11.6
2023-05-14T05:02:21.616Z,11.7
2023-05-14T05:03:30.790Z,11.6
2023-05-14T05:04:39.961Z,11.5
2023-05-14T05:05:49.136Z,11.5
2023-05-14T05:06:58.305Z,11.5
2023-05-14T05:08:07.487Z,11.5
2023-05-14T05:09:16.661Z,11.6
2023-05-14T05:10:25.831Z,11.5
2023-05-14T05:11:35.014Z,11.6
2023-05-14T05:12:44.175Z,11.5
2023-05-14T05:13:53.356Z,11.5
2023-05-14T05:15:02.523Z,11.5
2023-05-14T05:16:10.718Z,11.6
2023-05-14T05:17:19.892Z,11.6
2023-05-14T05:18:29.061Z,11.7
2023-05-14T05:19:38.233Z,11.7
2023-05-14T05:20:47.399Z,11.9
2023-05-14T05:21:56.570Z,11.9
2023-05-14T05:23:04.764Z,11.9
2023-05-14T05:24:12.967Z,12
2023-05-14T05:26:30.343Z,12
2023-05-14T05:27:39.499Z,12.1
2023-05-14T05:28:48.668Z,12.3
2023-05-14T05:29:57.857Z,12.6
2023-05-14T05:31:07.011Z,12.7
2023-05-14T05:32:16.189Z,13.1
2023-05-14T05:33:25.356Z,13.6
2023-05-14T05:34:34.528Z,14
2023-05-14T05:35:43.703Z,14.4
2023-05-14T05:36:52.876Z,14.7
2023-05-14T05:38:02.043Z,15.1
2023-05-14T05:39:11.251Z,15.6
2023-05-14T05:40:19.440Z,16
2023-05-14T05:41:28.584Z,16.4
2023-05-14T05:42:37.754Z,16.5
2023-05-14T05:43:46.924Z,16.6
2023-05-14T05:44:56.103Z,16.8
2023-05-14T05:46:05.278Z,17.2
2023-05-14T05:47:14.452Z,17.4
2023-05-14T05:48:23.612Z,17.2
2023-05-14T05:49:32.791Z,16.6
2023-05-14T05:50:41.955Z,16.6
2023-05-14T05:51:51.118Z,16.5
2023-05-14T05:54:09.469Z,16.5
2023-05-14T05:55:18.655Z,16.8
2023-05-14T05:56:26.853Z,16.6
2023-05-14T05:57:36.057Z,16.6
2023-05-14T05:58:45.171Z,16.8
2023-05-14T05:59:54.350Z,17.1
2023-05-14T06:01:03.557Z,16.8
2023-05-14T06:02:11.746Z,16.7
2023-05-14T06:05:38.327Z,16.7
2023-05-14T06:06:47.434Z,16.9
2023-05-14T06:07:56.606Z,17
2023-05-14T06:09:05.805Z,16.9
2023-05-14T06:10:14.939Z,16.9
2023-05-14T06:11:24.119Z,16.9
2023-05-14T06:12:33.294Z,16.8
2023-05-14T06:14:51.649Z,17.1
2023-05-14T06:16:00.819Z,17.3
2023-05-14T06:17:09.004Z,17.5
2023-05-14T06:18:17.194Z,17.6
2023-05-14T06:19:26.376Z,17.4
2023-05-14T06:20:35.531Z,17.4
2023-05-14T06:21:44.704Z,17.1
2023-05-14T06:22:53.876Z,17.4
2023-05-14T06:24:03.075Z,17.4
2023-05-14T06:25:12.220Z,17.4
2023-05-14T06:26:21.391Z,17.1
2023-05-14T06:27:30.577Z,17.4
2023-05-14T06:28:38.796Z,17.2
2023-05-14T06:29:46.936Z,17.2
2023-05-14T06:30:56.107Z,17
2023-05-14T06:33:14.464Z,17.9
2023-05-14T06:34:23.641Z,17.9
2023-05-14T06:35:32.848Z,17.2
2023-05-14T06:36:41.987Z,17.2
2023-05-14T06:37:51.154Z,17
2023-05-14T06:39:00.328Z,17.3
2023-05-14T06:40:09.492Z,17.8
2023-05-14T06:41:18.667Z,17.9
2023-05-14T06:42:27.841Z,17.1
2023-05-14T06:43:37.018Z,17.1
2023-05-14T06:44:45.213Z,17
2023-05-14T06:45:54.385Z,17.4
2023-05-14T06:47:03.546Z,17.3
2023-05-14T06:48:12.741Z,17.6
2023-05-14T06:49:21.892Z,17.4
2023-05-14T06:50:31.068Z,17.1
2023-05-14T06:51:40.233Z,17
2023-05-14T06:52:49.413Z,17.5
2023-05-14T06:53:58.583Z,17.5
2023-05-14T06:55:07.751Z,17.3
2023-05-14T06:56:16.926Z,17.2
2023-05-14T06:57:26.090Z,17.4
2023-05-14T06:59:43.466Z,17.3
2023-05-14T07:00:51.658Z,17.3
2023-05-14T07:01:59.858Z,17.2
2023-05-14T07:03:08.078Z,17.3
2023-05-14T07:04:17.210Z,17.7
2023-05-14T07:05:26.399Z,18.3
2023-05-14T07:06:35.576Z,18.8
2023-05-14T07:07:44.728Z,18.5
2023-05-14T07:08:53.898Z,17.7
2023-05-14T07:10:03.100Z,17.7
2023-05-14T07:11:12.248Z,17.9
2023-05-14T07:12:21.445Z,17.5
2023-05-14T07:13:30.593Z,17.1
2023-05-14T07:14:39.769Z,17.4
2023-05-14T07:15:48.934Z,17.9
2023-05-14T07:18:07.285Z,17.9
2023-05-14T07:19:15.470Z,17.9
2023-05-14T07:20:24.647Z,18
2023-05-14T07:21:33.819Z,18.5
2023-05-14T07:22:42.992Z,19
2023-05-14T07:26:10.503Z,19.4
2023-05-14T07:27:19.684Z,19.7
2023-05-14T07:28:27.870Z,19.4
2023-05-14T07:29:36.074Z,19.2
2023-05-14T07:31:54.414Z,19.2
2023-05-14T07:35:21.918Z,18.1
2023-05-14T07:36:31.155Z,18.5
2023-05-14T07:37:40.276Z,18.9
2023-05-14T07:38:49.439Z,19.4
2023-05-14T07:39:57.650Z,19.6
2023-05-14T07:41:06.806Z,18.7
2023-05-14T07:42:15.975Z,18.2
2023-05-14T07:43:25.152Z,18
2023-05-14T07:44:33.345Z,18
2023-05-14T07:45:41.533Z,18.1
2023-05-14T07:46:50.714Z,18.4
2023-05-14T07:47:59.872Z,18.6
2023-05-14T07:49:09.064Z,18.3
2023-05-14T07:50:18.211Z,18.4
2023-05-14T07:51:27.384Z,18.4
2023-05-14T07:52:36.570Z,18.9
2023-05-14T07:53:45.740Z,19
2023-05-14T07:54:54.905Z,19.6
2023-05-14T07:56:03.117Z,20.2
2023-05-14T07:57:11.300Z,20.6
2023-05-14T07:58:20.471Z,20.9
2023-05-14T07:59:29.640Z,20.5
2023-05-14T08:00:38.803Z,20.3
2023-05-14T08:01:47.984Z,20.1
2023-05-14T08:02:57.217Z,20
2023-05-14T08:04:06.346Z,19.8
2023-05-14T08:05:15.513Z,20.1
2023-05-14T08:06:24.693Z,19.9
2023-05-14T08:07:32.874Z,19.8
2023-05-14T08:09:51.215Z,19.7
2023-05-14T08:12:08.615Z,19.2
2023-05-14T08:13:17.777Z,19.2
2023-05-14T08:15:36.088Z,19.5
2023-05-14T08:16:45.268Z,19.6
2023-05-14T08:17:54.439Z,19.7
2023-05-14T08:19:03.618Z,19.6
2023-05-14T08:20:12.816Z,19.3
2023-05-14T08:21:21.952Z,19.4
2023-05-14T08:22:30.146Z,19.5
2023-05-14T08:23:38.339Z,19.5
2023-05-14T08:24:47.519Z,19.8
2023-05-14T08:25:56.782Z,19.9
2023-05-14T08:27:05.860Z,20.2
2023-05-14T08:28:15.043Z,20.8
2023-05-14T08:30:33.374Z,21.4
2023-05-14T08:31:42.557Z,21.1
2023-05-14T08:32:51.752Z,21.1
2023-05-14T08:34:00.902Z,21.1
2023-05-14T08:36:19.251Z,20.7
2023-05-14T08:37:27.461Z,20.4
2023-05-14T08:38:35.629Z,20.3
2023-05-14T08:39:44.811Z,20.8
2023-05-14T08:40:53.976Z,21
2023-05-14T08:42:03.178Z,21
2023-05-14T08:44:21.493Z,20.7
2023-05-14T08:45:30.676Z,20.8
2023-05-14T08:46:39.894Z,21
2023-05-14T08:47:49.057Z,20.7
2023-05-14T08:48:58.180Z,20.8
2023-05-14T08:50:07.353Z,20.9
2023-05-14T08:51:16.516Z,20.3
2023-05-14T08:52:25.688Z,20.4
2023-05-14T08:53:33.903Z,20.2
2023-05-14T08:54:43.067Z,20.8
2023-05-14T08:55:52.233Z,20.8
2023-05-14T08:57:01.449Z,20.7
2023-05-14T08:58:10.570Z,20.4
2023-05-14T08:59:19.730Z,20.6
2023-05-14T09:00:28.941Z,20.5
2023-05-14T09:01:37.106Z,20.2
2023-05-14T09:03:54.468Z,20.4
2023-05-14T09:05:03.642Z,20.8
2023-05-14T09:06:12.812Z,20.9
2023-05-14T09:07:21.997Z,20.6
2023-05-14T09:08:31.219Z,20.4
2023-05-14T09:09:40.346Z,20.7
2023-05-14T09:10:49.496Z,21
2023-05-14T09:11:58.697Z,21
2023-05-14T09:13:07.868Z,21.1
2023-05-14T09:14:17.018Z,21.5
2023-05-14T09:15:26.189Z,21.5
2023-05-14T09:16:35.377Z,22
2023-05-14T09:17:43.556Z,21.3
2023-05-14T09:18:52.733Z,20.9
2023-05-14T09:20:01.915Z,21.4
2023-05-14T09:22:20.255Z,21.3
2023-05-14T09:23:28.441Z,21.3
2023-05-14T09:24:36.616Z,20.9
2023-05-14T09:25:45.802Z,20.4
2023-05-14T09:26:54.982Z,20.2
2023-05-14T09:28:04.138Z,20.3
2023-05-14T09:29:13.315Z,20.7
2023-05-14T09:30:22.491Z,20.9
2023-05-14T09:31:31.654Z,20.7
2023-05-14T09:32:40.844Z,20.6
2023-05-14T09:33:49.996Z,20.1
2023-05-14T09:34:58.204Z,20.2
2023-05-14T09:36:06.389Z,20.1
2023-05-14T09:37:15.581Z,20.5
2023-05-14T09:38:24.728Z,21.4
2023-05-14T09:39:33.892Z,21.7
2023-05-14T09:40:43.068Z,21.8
2023-05-14T09:41:52.247Z,21.6
2023-05-14T09:43:01.429Z,21.7
2023-05-14T09:44:10.602Z,22.3
2023-05-14T09:45:19.814Z,22.4
2023-05-14T09:46:28.073Z,22.2
2023-05-14T09:47:36.143Z,22.1
2023-05-14T09:48:45.422Z,21.9
2023-05-14T09:49:54.512Z,21.6
2023-05-14T09:51:03.686Z,21.5
2023-05-14T09:52:12.833Z,21.6
2023-05-14T09:53:22.012Z,21.7
2023-05-14T09:54:31.262Z,21.4
2023-05-14T09:55:40.360Z,21.3
2023-05-14T09:56:49.518Z,21.6
2023-05-14T09:57:58.729Z,21.5
2023-05-14T10:00:17.047Z,21.6
2023-05-14T10:01:26.221Z,21.6
2023-05-14T10:02:34.425Z,20.5
2023-05-14T10:03:43.643Z,20.8
2023-05-14T10:04:52.760Z,21
2023-05-14T10:06:01.936Z,21.4
2023-05-14T10:07:11.111Z,22.1
2023-05-14T10:08:20.274Z,22.6
2023-05-14T10:09:29.456Z,23
2023-05-14T10:10:37.640Z,21.8
2023-05-14T10:11:45.854Z,21.4
2023-05-14T10:12:54.019Z,21.5
2023-05-14T10:14:03.200Z,21.1
2023-05-14T10:15:12.412Z,21.4
2023-05-14T10:16:21.564Z,21.8
2023-05-14T10:17:30.760Z,21.5
2023-05-14T10:18:39.925Z,21.3
2023-05-14T10:19:49.075Z,21
2023-05-14T10:20:58.233Z,21.2
2023-05-14T10:23:16.569Z,21.4
2023-05-14T10:24:25.792Z,21.6
2023-05-14T10:25:34.914Z,21
2023-05-14T10:26:44.101Z,20.7
2023-05-14T10:27:52.266Z,20.6
2023-05-14T10:29:01.458Z,20.8
2023-05-14T10:30:10.633Z,21
2023-05-14T10:31:19.799Z,21
2023-05-14T10:32:28.961Z,21.4
2023-05-14T10:33:38.158Z,21
2023-05-14T10:34:47.314Z,20.7
2023-05-14T10:35:55.505Z,20.7
2023-05-14T10:37:03.696Z,21
2023-05-14T10:38:12.870Z,21.8
2023-05-14T10:39:22.052Z,21.9
2023-05-14T10:41:40.391Z,21
2023-05-14T10:42:49.568Z,20.7
2023-05-14T10:43:58.732Z,20.7
2023-05-14T10:45:08.004Z,21.6
2023-05-14T10:47:26.299Z,21.5
2023-05-14T10:48:35.435Z,22.2
2023-05-14T10:49:43.623Z,22.7
2023-05-14T10:50:51.802Z,22.5
2023-05-14T10:52:00.978Z,22.1
2023-05-14T10:53:10.151Z,22
2023-05-14T10:54:19.317Z,22.1
2023-05-14T10:55:28.501Z,22.7
2023-05-14T10:56:37.760Z,23.3
2023-05-14T10:57:46.922Z,23.5
2023-05-14T10:58:56.010Z,23.2
2023-05-14T11:00:05.207Z,23.4
2023-05-14T11:01:13.490Z,23.2
2023-05-14T11:02:21.579Z,23.1
2023-05-14T11:03:30.747Z,22.2
2023-05-14T11:04:39.915Z,20.9
2023-05-14T11:05:49.078Z,20.9
2023-05-14T11:08:07.436Z,21.5
2023-05-14T11:09:16.602Z,21.4
2023-05-14T11:11:34.952Z,20.8
2023-05-14T11:12:44.143Z,20.6
2023-05-14T11:13:53.293Z,20.3
2023-05-14T11:15:01.494Z,20.4
2023-05-14T11:16:09.683Z,20.8
2023-05-14T11:17:18.852Z,21.5
2023-05-14T11:18:28.019Z,21.7
2023-05-14T11:19:37.191Z,22.3
2023-05-14T11:20:46.364Z,22.4
2023-05-14T11:21:55.542Z,22.4
2023-05-14T11:23:04.762Z,23.3
2023-05-14T11:24:13.880Z,22.7
2023-05-14T11:25:23.064Z,21.9
2023-05-14T11:26:31.325Z,22.5
2023-05-14T11:28:48.633Z,22
2023-05-14T11:29:57.790Z,21.8
2023-05-14T11:31:06.008Z,22.1
2023-05-14T11:32:15.163Z,21.9
2023-05-14T11:33:24.339Z,21.6
2023-05-14T11:34:33.493Z,21.7
2023-05-14T11:35:42.699Z,21.9
2023-05-14T11:36:51.848Z,21.9
2023-05-14T11:38:01.033Z,21.4
2023-05-14T11:39:10.194Z,21.4
2023-05-14T11:40:19.357Z,21.6
2023-05-14T11:41:28.535Z,21.9
2023-05-14T11:42:37.712Z,22.4
2023-05-14T11:43:46.877Z,23.2
2023-05-14T11:44:56.053Z,23.6
2023-05-14T11:46:04.246Z,24.2
2023-05-14T11:47:13.415Z,23.8
2023-05-14T11:48:22.586Z,23.7
2023-05-14T11:49:31.776Z,22.7
2023-05-14T11:50:39.957Z,22.5
2023-05-14T11:51:48.149Z,23
2023-05-14T11:52:57.390Z,22.9
2023-05-14T11:54:06.549Z,22.1
2023-05-14T11:55:15.660Z,21.5
2023-05-14T11:56:24.828Z,21.6
2023-05-14T11:57:34.002Z,22.3
2023-05-14T11:58:43.195Z,22.9
2023-05-14T11:59:52.367Z,23.4
2023-05-14T12:01:01.527Z,23.8
2023-05-14T12:02:10.701Z,23.2
2023-05-14T12:03:19.866Z,22.9
2023-05-14T12:04:29.080Z,22.9
2023-05-14T12:05:38.211Z,23
2023-05-14T12:06:46.391Z,23.1
2023-05-14T12:07:55.672Z,22
2023-05-14T12:09:04.757Z,21.6
2023-05-14T12:10:13.931Z,21.6
2023-05-14T12:11:23.085Z,21.7
2023-05-14T12:12:32.298Z,22.4
2023-05-14T12:13:40.483Z,22.9
2023-05-14T12:14:48.654Z,23.2
2023-05-14T12:15:56.843Z,23.7
2023-05-14T12:17:06.004Z,23.5
2023-05-14T12:18:15.171Z,24.1
2023-05-14T12:19:24.350Z,24
2023-05-14T12:20:33.523Z,23.6
2023-05-14T12:21:42.738Z,22.9
2023-05-14T12:22:51.886Z,22.8
2023-05-14T12:24:01.108Z,22.6
2023-05-14T12:25:10.264Z,23.5
2023-05-14T12:26:19.387Z,24.6
2023-05-14T12:27:28.623Z,24.1
2023-05-14T12:28:37.750Z,23.2
2023-05-14T12:29:46.921Z,23.1
2023-05-14T12:30:55.112Z,23.7
2023-05-14T12:32:04.273Z,23.8
2023-05-14T12:33:13.469Z,23.4
2023-05-14T12:34:22.615Z,23.3
2023-05-14T12:35:31.844Z,23.7
2023-05-14T12:36:40.962Z,23.3
2023-05-14T12:37:50.204Z,23.9
2023-05-14T12:38:58.339Z,24.6
2023-05-14T12:40:06.534Z,24.6
2023-05-14T12:41:15.692Z,23.7
2023-05-14T12:42:24.911Z,23.4
2023-05-14T12:43:34.044Z,24
2023-05-14T12:44:43.223Z,24.7
2023-05-14T12:45:52.409Z,24.8
2023-05-14T12:47:01.568Z,24.4
2023-05-14T12:48:10.792Z,24.3
2023-05-14T12:49:20.011Z,24.4
2023-05-14T12:50:29.094Z,24.2
2023-05-14T12:51:38.275Z,24.4
2023-05-14T12:52:47.438Z,24.3
2023-05-14T12:53:56.626Z,23
2023-05-14T12:55:04.805Z,23.2
2023-05-14T12:56:14.089Z,23
2023-05-14T12:57:23.144Z,22.3
2023-05-14T12:58:32.312Z,21.9
2023-05-14T12:59:41.544Z,21.7
2023-05-14T13:00:50.674Z,21.7
2023-05-14T13:01:59.833Z,21.9
2023-05-14T13:03:09.081Z,22.8
2023-05-14T13:04:18.181Z,23.2
2023-05-14T13:05:27.340Z,23.6
2023-05-14T13:06:36.535Z,23.9
2023-05-14T13:07:45.723Z,24.8
2023-05-14T13:08:54.924Z,25.9
2023-05-14T13:10:03.100Z,24.9
2023-05-14T13:11:12.298Z,23
2023-05-14T13:12:21.416Z,22.4
2023-05-14T13:13:30.619Z,22.6
2023-05-14T13:14:39.861Z,23.3
2023-05-14T13:15:48.952Z,23.4
2023-05-14T13:16:58.102Z,23.4
2023-05-14T13:18:07.275Z,23.2
2023-05-14T13:19:16.437Z,22.8
2023-05-14T13:20:25.623Z,22.7
2023-05-14T13:21:34.798Z,22
2023-05-14T13:22:43.967Z,21.5
2023-05-14T13:23:53.129Z,21.4
2023-05-14T13:25:01.325Z,21.5
2023-05-14T13:27:18.701Z,21.3
2023-05-14T13:28:26.923Z,21.5
2023-05-14T13:29:35.079Z,21.7
2023-05-14T13:30:43.283Z,21.5
2023-05-14T13:33:01.612Z,21.8
2023-05-14T13:34:10.780Z,21.6
2023-05-14T13:35:19.953Z,21.7
2023-05-14T13:36:29.123Z,21.4
2023-05-14T13:37:38.324Z,21.6
2023-05-14T13:39:56.650Z,21.6
2023-05-14T13:41:05.833Z,21.3
2023-05-14T13:43:24.173Z,21.5
2023-05-14T13:44:32.368Z,21.8
2023-05-14T13:45:40.545Z,22.2
2023-05-14T13:46:49.716Z,22.5
2023-05-14T13:47:59.106Z,23.8
2023-05-14T13:49:08.290Z,24.8
2023-05-14T13:50:17.232Z,24.6
2023-05-14T13:51:26.608Z,24.7
2023-05-14T13:52:35.652Z,25.7
2023-05-14T13:53:44.930Z,25.5
2023-05-14T13:54:53.917Z,25.4
2023-05-14T13:56:02.347Z,25.6
2023-05-14T13:57:10.308Z,24.6
2023-05-14T13:58:19.573Z,25.4
2023-05-14T13:59:28.830Z,25.8
2023-05-14T14:00:38.042Z,25.4
2023-05-14T14:01:47.166Z,24.6
2023-05-14T14:02:56.299Z,24.3
2023-05-14T14:04:05.416Z,24.5
2023-05-14T14:05:14.600Z,24.6
2023-05-14T14:06:23.699Z,24.6
2023-05-14T14:07:32.867Z,24.9
2023-05-14T14:08:42.112Z,24.8
2023-05-14T14:09:51.299Z,23.8
2023-05-14T14:11:00.397Z,23
2023-05-14T14:12:08.578Z,22.7
2023-05-14T14:13:17.761Z,22.6
2023-05-14T14:14:26.938Z,22.4
2023-05-14T14:15:36.112Z,21.8
2023-05-14T14:16:45.363Z,22.2
2023-05-14T14:17:54.652Z,22.8
2023-05-14T14:19:03.837Z,22.8
2023-05-14T14:20:12.787Z,22.7
2023-05-14T14:21:22.151Z,23.1
2023-05-14T14:22:31.318Z,24.2
2023-05-14T14:23:40.454Z,24.4
2023-05-14T14:24:49.492Z,24.9
2023-05-14T14:25:58.666Z,24.7
2023-05-14T14:27:06.935Z,25
2023-05-14T14:28:16.177Z,25.2
2023-05-14T14:29:25.332Z,25.4
2023-05-14T14:30:34.422Z,25.5
2023-05-14T14:31:43.678Z,25.6
2023-05-14T14:32:52.722Z,25.7
2023-05-14T14:34:02.056Z,26
2023-05-14T14:35:11.058Z,26.5
2023-05-14T14:36:20.268Z,25.1
2023-05-14T14:37:29.424Z,24
2023-05-14T14:38:38.571Z,23.4
2023-05-14T14:39:47.752Z,23.3
2023-05-14T14:40:55.940Z,23.5
2023-05-14T14:42:04.147Z,23.3
2023-05-14T14:43:12.326Z,23.1
2023-05-14T14:44:21.489Z,23.1
2023-05-14T14:45:30.686Z,23.3
2023-05-14T14:46:39.858Z,23.3
2023-05-14T14:47:49.020Z,23.5
2023-05-14T14:48:58.189Z,24.1
2023-05-14T14:50:07.388Z,24.5
2023-05-14T14:51:16.568Z,23.9
2023-05-14T14:52:25.738Z,23.7
2023-05-14T14:53:34.953Z,23.6
2023-05-14T14:54:44.069Z,23.3
2023-05-14T14:55:53.245Z,23.4
2023-05-14T14:57:02.401Z,22.9
2023-05-14T14:58:10.588Z,22.4
2023-05-14T14:59:19.778Z,22.4
2023-05-14T15:00:28.981Z,22.3
2023-05-14T15:01:38.137Z,22.8
2023-05-14T15:02:47.295Z,22.9
2023-05-14T15:03:56.481Z,23
2023-05-14T15:05:05.664Z,23
2023-05-14T15:06:13.869Z,23.5
2023-05-14T15:07:23.071Z,23.8
2023-05-14T15:08:31.224Z,24.1
2023-05-14T15:10:49.529Z,24
2023-05-14T15:11:58.728Z,24.1
2023-05-14T15:13:07.906Z,24.4
2023-05-14T15:14:17.052Z,23.1
2023-05-14T15:16:35.476Z,22.3
2023-05-14T15:17:44.562Z,22.2
2023-05-14T15:18:53.755Z,22.1
2023-05-14T15:20:01.933Z,22
2023-05-14T15:21:10.126Z,22.1
2023-05-14T15:22:18.317Z,22
2023-05-14T15:23:27.512Z,22.1
2023-05-14T15:24:36.677Z,22.3
2023-05-14T15:25:45.831Z,22.1
2023-05-14T15:26:55.008Z,21.9
2023-05-14T15:28:04.202Z,21.8
2023-05-14T15:29:13.370Z,21.9
2023-05-14T15:30:22.534Z,21.9
2023-05-14T15:31:30.738Z,21.7
2023-05-14T15:32:38.904Z,21.6
2023-05-14T15:33:48.088Z,21.2
2023-05-14T15:34:57.253Z,21.1
2023-05-14T15:36:06.550Z,20.9
2023-05-14T15:37:15.602Z,20.6
2023-05-14T15:38:24.790Z,20.5
2023-05-14T15:39:34.003Z,20.3
2023-05-14T15:40:43.142Z,20.3
2023-05-14T15:41:52.308Z,20.2
2023-05-14T15:43:01.480Z,20
2023-05-14T15:44:10.708Z,19.4
2023-05-14T15:45:19.890Z,19.1
2023-05-14T15:46:28.990Z,18.7
2023-05-14T15:47:37.198Z,18.4
2023-05-14T15:48:46.335Z,18.2
2023-05-14T15:49:55.504Z,18.1
2023-05-14T15:51:04.687Z,18
2023-05-14T15:52:13.873Z,18
2023-05-14T15:53:23.041Z,18
2023-05-14T15:54:32.225Z,18
2023-05-14T15:55:40.397Z,18.1
2023-05-14T15:56:48.572Z,18.1
2023-05-14T15:57:57.750Z,18.1
2023-05-14T15:59:06.923Z,18
2023-05-14T16:00:16.157Z,18
2023-05-14T16:01:25.280Z,17.9
2023-05-14T16:02:34.452Z,17.9
2023-05-14T16:03:43.602Z,18
2023-05-14T16:04:52.772Z,18.1
2023-05-14T16:06:01.964Z,18.1
2023-05-14T16:07:11.129Z,18.1
2023-05-14T16:09:29.480Z,18.2
2023-05-14T16:10:38.747Z,18.3
2023-05-14T16:11:46.839Z,18.4
2023-05-14T16:12:56.016Z,18.6
2023-05-14T16:14:05.176Z,18.7
2023-05-14T16:15:14.371Z,18.7
2023-05-14T16:16:23.524Z,18.8
2023-05-14T16:17:32.772Z,18.9
2023-05-14T16:18:41.885Z,19
2023-05-14T16:19:51.042Z,19
2023-05-14T16:21:00.214Z,18.8
2023-05-14T16:22:09.404Z,18.8
2023-05-14T16:23:18.554Z,19
2023-05-14T16:24:27.745Z,19
2023-05-14T16:25:36.908Z,19.2
2023-05-14T16:26:45.088Z,19.5
2023-05-14T16:27:54.286Z,19.6
2023-05-14T16:29:03.448Z,19.6